Time;durP1;ratioP1;P1;durP2;ratioP2;P2;SDS_P1;SDS_P2;PMS_P1;PMS_P2;Temp;Humidity;BMP_temperature;BMP_pressure;BME280_temperature;BME280_humidity;BME280_pressure;Samples;Min_cycle;Max_cycle;Signal;HPM_P1;HPM_P2
2023/01/21 00:02:11;;;;;;;46.30;30.63;;;;;;;;;;5074587;28;20204;-76
2023/01/21 00:04:40;;;;;;;50.53;32.20;;;;;;;;;;5074417;28;20222;-77
2023/01/21 00:07:07;;;;;;;57.33;35.30;;;;;;;;;;5074249;28;20225;-76
2023/01/21 00:09:35;;;;;;;58.90;36.27;;;;;;;;;;5074554;28;20326;-77
2023/01/21 00:12:02;;;;;;;58.40;36.93;;;;;;;;;;5087748;28;20229;-76
2023/01/21 00:14:30;;;;;;;69.03;41.23;;;;;;;;;;5094431;28;20689;-76
2023/01/21 00:16:58;;;;;;;59.87;38.57;;;;;;;;;;5094664;28;20697;-76
2023/01/21 00:19:25;;;;;;;59.93;38.47;;;;;;;;;;5094540;28;20559;-77
2023/01/21 00:21:53;;;;;;;60.90;37.23;;;;;;;;;;5094552;28;20284;-76
2023/01/21 00:24:21;;;;;;;57.57;34.90;;;;;;;;;;5094239;28;20242;-77
2023/01/21 00:26:48;;;;;;;49.10;33.70;;;;;;;;;;5094023;28;20221;-76
2023/01/21 00:29:16;;;;;;;45.83;30.93;;;;;;;;;;5094678;28;20221;-77
2023/01/21 00:31:43;;;;;;;49.07;31.40;;;;;;;;;;5093337;28;20735;-77
2023/01/21 00:34:11;;;;;;;47.90;31.00;;;;;;;;;;5093818;28;20243;-77
2023/01/21 00:36:38;;;;;;;53.57;34.53;;;;;;;;;;5094276;28;20246;-77
2023/01/21 00:39:06;;;;;;;58.83;37.57;;;;;;;;;;5093634;28;20240;-76
2023/01/21 00:41:36;;;;;;;60.27;38.00;;;;;;;;;;5093960;28;20240;-77
2023/01/21 00:44:03;;;;;;;65.27;39.47;;;;;;;;;;5094231;28;20205;-76
2023/01/21 00:46:30;;;;;;;56.00;34.23;;;;;;;;;;5094149;28;20266;-76
2023/01/21 00:48:59;;;;;;;52.80;30.83;;;;;;;;;;5093990;28;20730;-76
2023/01/21 00:51:26;;;;;;;46.40;29.93;;;;;;;;;;5093814;28;20208;-77
2023/01/21 00:53:53;;;;;;;44.50;28.80;;;;;;;;;;5093692;28;20647;-76
2023/01/21 00:56:22;;;;;;;40.83;27.90;;;;;;;;;;5093298;28;20289;-76
2023/01/21 00:58:49;;;;;;;43.77;28.10;;;;;;;;;;5093800;28;20191;-76
2023/01/21 01:01:17;;;;;;;45.10;29.77;;;;;;;;;;5093628;28;20238;-75
2023/01/21 01:03:45;;;;;;;43.37;28.80;;;;;;;;;;5093769;28;20292;-76
2023/01/21 01:06:14;;;;;;;48.70;29.87;;;;;;;;;;5093509;28;20615;-76
2023/01/21 01:08:42;;;;;;;43.37;27.63;;;;;;;;;;5093207;28;20320;-76
2023/01/21 01:11:09;;;;;;;39.97;26.13;;;;;;;;;;5093450;28;20280;-76
2023/01/21 01:13:38;;;;;;;37.60;24.70;;;;;;;;;;5093753;28;20197;-76
2023/01/21 01:16:05;;;;;;;35.27;25.00;;;;;;;;;;5093425;28;20661;-76
2023/01/21 01:18:33;;;;;;;38.63;24.53;;;;;;;;;;5093264;28;20281;-75
2023/01/21 01:21:01;;;;;;;36.80;24.57;;;;;;;;;;5093027;28;20198;-76
2023/01/21 01:23:28;;;;;;;39.37;24.93;;;;;;;;;;5092939;28;20251;-76
2023/01/21 01:25:56;;;;;;;37.30;24.97;;;;;;;;;;5093403;28;20225;-76
2023/01/21 01:28:23;;;;;;;39.67;24.77;;;;;;;;;;5092774;28;20655;-75
2023/01/21 01:30:52;;;;;;;42.10;25.10;;;;;;;;;;5093426;28;20292;-76
2023/01/21 01:33:19;;;;;;;40.13;24.37;;;;;;;;;;5093134;28;20229;-75
2023/01/21 01:35:47;;;;;;;37.43;23.90;;;;;;;;;;5092849;28;20294;-76
2023/01/21 01:38:14;;;;;;;37.00;23.50;;;;;;;;;;5092977;28;20320;-76
2023/01/21 01:40:42;;;;;;;34.97;22.73;;;;;;;;;;5093094;28;20279;-76
2023/01/21 01:43:17;;;;;;;31.90;21.77;;;;;;;;;;5092868;28;20293;-76
2023/01/21 01:45:44;;;;;;;34.13;22.27;;;;;;;;;;5092822;28;20217;-76
2023/01/21 01:48:14;;;;;;;29.97;20.67;;;;;;;;;;5092963;28;20302;-76
2023/01/21 01:50:42;;;;;;;29.00;19.17;;;;;;;;;;5092674;28;20289;-76
2023/01/21 01:53:10;;;;;;;22.20;15.70;;;;;;;;;;5092361;28;20304;-76
2023/01/21 01:55:37;;;;;;;20.23;13.40;;;;;;;;;;5092913;28;20286;-76
2023/01/21 01:58:06;;;;;;;20.03;14.20;;;;;;;;;;5092694;28;20315;-75
2023/01/21 02:00:34;;;;;;;26.23;17.17;;;;;;;;;;5092214;28;20289;-76
2023/01/21 02:05:48;;;;;;;24.37;16.07;;;;;;;;;;5092474;28;20220;-76
2023/01/21 02:08:16;;;;;;;25.17;13.93;;;;;;;;;;5092082;28;20230;-76
2023/01/21 02:10:43;;;;;;;18.67;12.40;;;;;;;;;;5092621;28;20627;-75
2023/01/21 02:13:10;;;;;;;17.37;12.30;;;;;;;;;;5092344;28;20230;-76
2023/01/21 02:15:41;;;;;;;20.93;12.90;;;;;;;;;;5092152;28;20619;-75
2023/01/21 02:18:12;;;;;;;20.67;13.30;;;;;;;;;;5091585;28;20250;-75
2023/01/21 02:20:48;;;;;;;21.73;13.77;;;;;;;;;;5084803;28;20281;-75
2023/01/21 02:23:20;;;;;;;20.13;13.77;;;;;;;;;;5076946;28;20241;-76
2023/01/21 02:26:11;;;;;;;20.73;13.10;;;;;;;;;;5071752;28;20289;-76
2023/01/21 02:29:05;;;;;;;19.80;12.90;;;;;;;;;;5071916;28;20293;-75
2023/01/21 02:31:41;;;;;;;19.60;12.97;;;;;;;;;;5010160;28;20289;-78
2023/01/21 02:34:17;;;;;;;21.87;13.53;;;;;;;;;;5009621;28;20448;-75
2023/01/21 02:36:51;;;;;;;21.30;13.67;;;;;;;;;;5009172;28;20287;-75
2023/01/21 02:39:22;;;;;;;23.33;13.43;;;;;;;;;;5009690;28;20284;-75
2023/01/21 02:41:57;;;;;;;23.13;14.50;;;;;;;;;;5009372;28;20304;-78
2023/01/21 02:44:27;;;;;;;24.60;14.77;;;;;;;;;;5009401;28;20221;-77
2023/01/21 02:46:58;;;;;;;23.27;14.73;;;;;;;;;;5009480;28;20824;-77
2023/01/21 02:49:29;;;;;;;20.43;14.20;;;;;;;;;;5009315;28;20305;-77
2023/01/21 02:51:57;;;;;;;23.27;14.97;;;;;;;;;;5008931;28;20284;-77
2023/01/21 02:54:39;;;;;;;23.67;14.73;;;;;;;;;;5009641;28;20348;-78
2023/01/21 02:57:06;;;;;;;20.50;14.40;;;;;;;;;;5001049;28;20281;-78
2023/01/21 02:59:34;;;;;;;20.43;13.90;;;;;;;;;;5009274;28;20765;-77
2023/01/21 03:02:06;;;;;;;22.33;14.83;;;;;;;;;;5009153;28;20221;-78
2023/01/21 03:04:50;;;;;;;21.97;14.43;;;;;;;;;;5009193;28;20783;-78
2023/01/21 03:07:22;;;;;;;22.13;13.77;;;;;;;;;;5038984;28;20294;-78
2023/01/21 03:09:49;;;;;;;23.23;14.47;;;;;;;;;;5071003;28;20257;-79
2023/01/21 03:12:29;;;;;;;21.50;13.83;;;;;;;;;;5087090;28;20281;-78
2023/01/21 03:17:48;;;;;;;19.60;13.07;;;;;;;;;;5091146;28;20367;-77
2023/01/21 03:20:20;;;;;;;19.50;13.07;;;;;;;;;;5090942;28;20289;-78
2023/01/21 03:22:48;;;;;;;19.90;12.83;;;;;;;;;;5091216;28;20219;-78
2023/01/21 03:25:16;;;;;;;19.33;12.93;;;;;;;;;;5092167;28;20287;-78
2023/01/21 03:27:45;;;;;;;17.83;12.47;;;;;;;;;;5091353;28;20291;-78
2023/01/21 03:30:14;;;;;;;20.23;12.67;;;;;;;;;;5091283;28;20226;-78
2023/01/21 03:32:42;;;;;;;20.17;12.77;;;;;;;;;;5091300;28;20307;-77
2023/01/21 03:35:11;;;;;;;15.53;11.53;;;;;;;;;;5090770;28;20222;-78
2023/01/21 03:37:41;;;;;;;19.73;11.50;;;;;;;;;;5091253;28;20797;-77
2023/01/21 03:40:14;;;;;;;19.33;12.20;;;;;;;;;;5091228;28;20245;-77
2023/01/21 03:42:42;;;;;;;18.30;12.30;;;;;;;;;;5091264;28;20203;-77
2023/01/21 03:45:10;;;;;;;18.57;11.13;;;;;;;;;;5091245;28;20635;-76
2023/01/21 03:47:38;;;;;;;18.80;11.73;;;;;;;;;;5091021;28;20221;-77
2023/01/21 03:50:08;;;;;;;15.27;11.23;;;;;;;;;;5090857;28;20251;-77
2023/01/21 03:52:39;;;;;;;17.73;10.83;;;;;;;;;;5090923;28;20286;-77
2023/01/21 03:55:08;;;;;;;17.07;10.97;;;;;;;;;;5091203;28;20290;-77
2023/01/21 03:57:35;;;;;;;16.03;10.57;;;;;;;;;;5091086;28;20395;-77
2023/01/21 04:00:02;;;;;;;17.70;10.43;;;;;;;;;;5091028;28;20636;-77
2023/01/21 04:02:30;;;;;;;19.10;10.37;;;;;;;;;;5091528;28;20209;-77
2023/01/21 04:04:57;;;;;;;20.10;10.80;;;;;;;;;;5090564;28;20229;-77
2023/01/21 04:07:24;;;;;;;20.30;11.13;;;;;;;;;;5092796;28;20200;-77
2023/01/21 04:09:51;;;;;;;15.33;10.37;;;;;;;;;;5094494;28;20331;-77
2023/01/21 04:12:20;;;;;;;16.00;10.47;;;;;;;;;;5095127;28;20283;-77
2023/01/21 04:14:47;;;;;;;20.80;10.87;;;;;;;;;;5079241;28;20286;-77
2023/01/21 04:17:14;;;;;;;17.67;10.47;;;;;;;;;;5074100;28;20292;-77
2023/01/21 04:19:41;;;;;;;14.63;10.10;;;;;;;;;;5074291;28;20282;-76
2023/01/21 04:22:08;;;;;;;15.87;9.83;;;;;;;;;;5074481;28;20290;-76
2023/01/21 04:24:36;;;;;;;18.40;9.47;;;;;;;;;;5074386;28;20294;-77
2023/01/21 04:27:03;;;;;;;17.97;9.77;;;;;;;;;;5074268;28;20287;-77
2023/01/21 04:29:31;;;;;;;16.57;9.37;;;;;;;;;;5074182;28;20257;-77
2023/01/21 04:31:59;;;;;;;15.10;10.13;;;;;;;;;;5073442;28;20667;-77
2023/01/21 04:34:26;;;;;;;15.63;9.13;;;;;;;;;;5074133;28;20222;-77
2023/01/21 04:36:53;;;;;;;14.73;9.07;;;;;;;;;;5074043;28;20773;-77
2023/01/21 04:39:20;;;;;;;16.23;9.30;;;;;;;;;;5073946;28;20285;-77
2023/01/21 04:41:47;;;;;;;14.93;8.77;;;;;;;;;;5074172;28;20291;-77
2023/01/21 04:44:15;;;;;;;13.83;9.07;;;;;;;;;;5074048;28;20321;-77
2023/01/21 04:46:43;;;;;;;13.23;8.67;;;;;;;;;;5073550;28;20304;-77
2023/01/21 04:49:10;;;;;;;13.07;8.30;;;;;;;;;;5073248;28;20812;-77
2023/01/21 04:51:37;;;;;;;13.87;9.00;;;;;;;;;;5074103;28;20251;-77
2023/01/21 04:54:05;;;;;;;13.20;8.53;;;;;;;;;;5073313;28;20284;-76
2023/01/21 04:56:32;;;;;;;13.40;8.63;;;;;;;;;;5073647;28;20240;-77
2023/01/21 04:58:59;;;;;;;15.93;9.00;;;;;;;;;;5073224;28;20327;-77
2023/01/21 05:01:26;;;;;;;13.87;9.00;;;;;;;;;;5073009;28;20314;-77
2023/01/21 05:03:55;;;;;;;15.53;8.87;;;;;;;;;;5073534;28;20223;-77
2023/01/21 05:06:22;;;;;;;13.17;7.93;;;;;;;;;;5073658;28;20280;-77
2023/01/21 05:08:49;;;;;;;15.13;8.87;;;;;;;;;;5083689;28;20314;-76
2023/01/21 05:11:18;;;;;;;14.67;7.67;;;;;;;;;;5093788;28;20286;-77
2023/01/21 05:13:45;;;;;;;17.47;8.60;;;;;;;;;;5093416;28;20291;-77
2023/01/21 05:16:13;;;;;;;13.27;7.87;;;;;;;;;;5093102;28;20249;-77
2023/01/21 05:18:40;;;;;;;16.83;8.43;;;;;;;;;;5092455;28;20234;-77
2023/01/21 05:21:09;;;;;;;12.67;7.40;;;;;;;;;;5093443;28;20196;-77
2023/01/21 05:23:36;;;;;;;21.07;7.67;;;;;;;;;;5093283;28;20206;-76
2023/01/21 05:26:04;;;;;;;15.33;7.90;;;;;;;;;;5093214;28;20241;-77
2023/01/21 05:28:31;;;;;;;12.57;7.97;;;;;;;;;;5093368;28;20641;-77
2023/01/21 05:31:01;;;;;;;16.90;7.80;;;;;;;;;;5092980;28;20304;-77
2023/01/21 05:33:29;;;;;;;13.30;7.83;;;;;;;;;;5093056;28;20196;-76
2023/01/21 05:35:57;;;;;;;19.13;7.67;;;;;;;;;;5092592;28;20293;-77
2023/01/21 05:38:25;;;;;;;13.77;7.80;;;;;;;;;;5092702;28;20316;-77
2023/01/21 05:40:57;;;;;;;13.37;8.10;;;;;;;;;;5093108;28;20287;-77
2023/01/21 05:43:24;;;;;;;15.63;8.07;;;;;;;;;;5093334;28;20556;-77
2023/01/21 05:45:51;;;;;;;15.43;7.90;;;;;;;;;;5092671;28;20287;-77
2023/01/21 05:48:18;;;;;;;11.67;7.50;;;;;;;;;;5092683;28;20246;-77
2023/01/21 05:50:45;;;;;;;15.30;8.37;;;;;;;;;;5092991;28;20404;-77
2023/01/21 05:53:12;;;;;;;18.33;7.90;;;;;;;;;;5093456;28;20215;-77
2023/01/21 05:55:41;;;;;;;15.93;8.20;;;;;;;;;;5092602;28;20735;-77
2023/01/21 05:58:08;;;;;;;13.47;7.80;;;;;;;;;;5092703;28;20258;-77
2023/01/21 06:00:36;;;;;;;14.60;8.10;;;;;;;;;;5092609;28;20226;-77
2023/01/21 06:03:03;;;;;;;15.73;8.00;;;;;;;;;;5092357;28;20743;-77
2023/01/21 06:05:31;;;;;;;15.90;8.03;;;;;;;;;;5092855;28;20192;-76
2023/01/21 06:07:58;;;;;;;13.80;8.07;;;;;;;;;;5092261;28;20709;-77
2023/01/21 06:10:25;;;;;;;17.77;8.47;;;;;;;;;;5092177;28;20807;-76
2023/01/21 06:12:54;;;;;;;12.63;7.67;;;;;;;;;;5071994;28;20283;-76
2023/01/21 06:15:21;;;;;;;11.97;7.03;;;;;;;;;;5072136;28;20289;-77
2023/01/21 06:17:48;;;;;;;14.57;7.20;;;;;;;;;;5071885;28;20579;-77
2023/01/21 06:20:15;;;;;;;12.07;6.93;;;;;;;;;;5071997;28;20324;-77
2023/01/21 06:22:42;;;;;;;15.07;6.67;;;;;;;;;;5072126;28;20582;-77
2023/01/21 06:25:10;;;;;;;14.17;7.07;;;;;;;;;;5071952;28;20283;-77
2023/01/21 06:27:38;;;;;;;11.97;6.63;;;;;;;;;;5071514;28;20312;-78
2023/01/21 06:30:07;;;;;;;11.20;6.40;;;;;;;;;;5071289;28;20204;-77
2023/01/21 06:32:35;;;;;;;14.90;6.77;;;;;;;;;;5071739;28;20223;-77
2023/01/21 06:35:03;;;;;;;12.03;6.37;;;;;;;;;;5071548;28;20941;-77
2023/01/21 06:37:30;;;;;;;12.73;6.40;;;;;;;;;;5071880;28;20196;-76
2023/01/21 06:39:57;;;;;;;10.43;6.07;;;;;;;;;;5071745;28;20329;-77
2023/01/21 06:42:24;;;;;;;14.20;6.70;;;;;;;;;;5071182;28;20286;-77
2023/01/21 06:44:51;;;;;;;14.90;6.83;;;;;;;;;;5071105;28;20282;-77
2023/01/21 06:47:20;;;;;;;11.47;6.23;;;;;;;;;;5071107;28;20293;-76
2023/01/21 06:49:47;;;;;;;12.83;6.10;;;;;;;;;;5071220;28;20216;-77
2023/01/21 06:52:14;;;;;;;14.43;6.33;;;;;;;;;;5071663;28;20232;-78
2023/01/21 06:54:42;;;;;;;13.17;6.10;;;;;;;;;;5071435;28;20200;-77
2023/01/21 06:57:09;;;;;;;11.30;6.27;;;;;;;;;;5071097;28;20206;-78
2023/01/21 06:59:36;;;;;;;12.13;5.93;;;;;;;;;;5071478;28;20261;-77
2023/01/21 07:02:03;;;;;;;10.47;6.10;;;;;;;;;;5071345;28;20283;-77
2023/01/21 07:04:32;;;;;;;11.17;6.07;;;;;;;;;;5071302;28;20225;-77
2023/01/21 07:06:59;;;;;;;11.67;5.73;;;;;;;;;;5071563;28;20224;-78
2023/01/21 07:09:26;;;;;;;11.17;5.43;;;;;;;;;;5071877;28;20253;-77
2023/01/21 07:11:54;;;;;;;9.43;5.60;;;;;;;;;;5083486;28;20238;-77
2023/01/21 07:14:21;;;;;;;14.67;6.33;;;;;;;;;;5090492;28;20249;-77
2023/01/21 07:16:48;;;;;;;12.17;5.90;;;;;;;;;;5088071;28;20295;-77
2023/01/21 07:19:15;;;;;;;12.53;6.60;;;;;;;;;;5091253;28;20326;-77
2023/01/21 07:21:44;;;;;;;12.37;5.90;;;;;;;;;;5091589;28;20233;-77
2023/01/21 07:24:11;;;;;;;15.23;6.13;;;;;;;;;;5081288;28;20242;-78
2023/01/21 07:26:40;;;;;;;9.57;6.27;;;;;;;;;;5071115;28;20245;-77
2023/01/21 07:29:07;;;;;;;11.47;6.73;;;;;;;;;;5071354;28;20288;-77
2023/01/21 07:31:35;;;;;;;13.57;6.60;;;;;;;;;;5071144;28;20729;-77
2023/01/21 07:34:02;;;;;;;12.90;6.80;;;;;;;;;;5071267;28;20297;-77
2023/01/21 07:36:29;;;;;;;13.10;6.70;;;;;;;;;;5071274;28;20617;-76
2023/01/21 07:38:58;;;;;;;10.93;6.17;;;;;;;;;;5071005;28;20258;-77
2023/01/21 07:41:25;;;;;;;15.97;7.10;;;;;;;;;;5070831;28;20680;-77
2023/01/21 07:43:52;;;;;;;12.13;6.63;;;;;;;;;;5081055;28;20288;-77
2023/01/21 07:46:20;;;;;;;12.07;6.47;;;;;;;;;;5080873;28;20335;-79
2023/01/21 07:48:48;;;;;;;13.63;6.73;;;;;;;;;;5075045;28;20631;-81
2023/01/21 07:51:15;;;;;;;14.30;7.20;;;;;;;;;;5078890;28;20600;-80
2023/01/21 07:53:42;;;;;;;11.73;6.47;;;;;;;;;;5094111;28;20232;-79
2023/01/21 07:56:11;;;;;;;15.80;7.10;;;;;;;;;;5094614;28;20226;-79
2023/01/21 07:58:38;;;;;;;13.93;6.60;;;;;;;;;;5093471;28;20739;-78
2023/01/21 08:01:06;;;;;;;13.20;6.83;;;;;;;;;;5094883;28;20227;-79
2023/01/21 08:03:34;;;;;;;16.57;8.57;;;;;;;;;;5093782;28;20672;-79
2023/01/21 08:06:01;;;;;;;16.43;10.63;;;;;;;;;;5092442;28;20225;-78
2023/01/21 08:08:28;;;;;;;19.73;11.00;;;;;;;;;;5084294;28;20737;-78
2023/01/21 08:10:56;;;;;;;23.73;11.90;;;;;;;;;;5093287;28;20281;-78
2023/01/21 08:13:25;;;;;;;17.27;11.47;;;;;;;;;;5085073;28;20241;-78
2023/01/21 08:15:53;;;;;;;17.10;11.47;;;;;;;;;;5085083;28;20225;-77
2023/01/21 08:18:21;;;;;;;24.10;14.07;;;;;;;;;;5089545;28;20264;-78
2023/01/21 08:20:49;;;;;;;28.73;24.93;;;;;;;;;;5094578;28;20318;-82
2023/01/21 08:23:16;;;;;;;21.20;16.40;;;;;;;;;;5088440;28;20313;-82
2023/01/21 08:25:43;;;;;;;11.50;8.20;;;;;;;;;;5082973;28;20283;-82
2023/01/21 08:28:10;;;;;;;15.70;9.67;;;;;;;;;;5084216;28;20693;-83
2023/01/21 08:30:39;;;;;;;10.57;8.10;;;;;;;;;;5082440;28;20235;-83
2023/01/21 08:33:06;;;;;;;10.13;6.53;;;;;;;;;;5082243;28;20190;-83
2023/01/21 08:35:33;;;;;;;8.90;6.50;;;;;;;;;;5085510;28;20230;-80
2023/01/21 08:38:01;;;;;;;8.80;5.90;;;;;;;;;;5089241;28;20205;-81
2023/01/21 08:40:28;;;;;;;6.97;5.30;;;;;;;;;;5079373;28;20325;-81
2023/01/21 08:42:58;;;;;;;8.27;5.13;;;;;;;;;;5082021;28;20872;-82
2023/01/21 08:45:25;;;;;;;8.90;5.43;;;;;;;;;;5079898;28;20207;-81
2023/01/21 08:47:54;;;;;;;7.40;4.47;;;;;;;;;;5080801;28;20223;-83
2023/01/21 08:50:22;;;;;;;6.37;4.90;;;;;;;;;;5082102;28;20225;-83
2023/01/21 08:52:52;;;;;;;9.30;5.63;;;;;;;;;;5083476;28;20290;-82
2023/01/21 08:55:20;;;;;;;8.87;5.30;;;;;;;;;;5092407;28;20197;-84
2023/01/21 08:57:50;;;;;;;11.53;7.00;;;;;;;;;;5092685;28;20548;-84
2023/01/21 09:00:18;;;;;;;12.00;6.20;;;;;;;;;;5093285;28;20241;-83
2023/01/21 09:02:46;;;;;;;14.07;6.90;;;;;;;;;;5093133;28;20198;-85
2023/01/21 09:05:14;;;;;;;7.53;5.50;;;;;;;;;;5093120;28;20218;-84
2023/01/21 09:07:42;;;;;;;8.30;5.63;;;;;;;;;;5092572;28;20282;-85
2023/01/21 09:10:09;;;;;;;10.23;6.93;;;;;;;;;;5092457;28;20326;-84
2023/01/21 09:12:37;;;;;;;9.33;5.57;;;;;;;;;;5082599;28;20282;-85
2023/01/21 09:15:04;;;;;;;8.53;6.00;;;;;;;;;;5082941;28;20206;-84
2023/01/21 09:17:33;;;;;;;8.03;5.83;;;;;;;;;;5090109;28;20847;-85
2023/01/21 09:20:00;;;;;;;13.63;8.40;;;;;;;;;;5092920;28;20229;-85
2023/01/21 09:22:29;;;;;;;8.40;6.90;;;;;;;;;;5092177;28;20198;-85
2023/01/21 09:24:56;;;;;;;8.33;6.30;;;;;;;;;;5092492;28;20218;-85
2023/01/21 09:27:26;;;;;;;10.67;6.07;;;;;;;;;;5092485;28;20282;-84
2023/01/21 09:29:53;;;;;;;10.47;7.63;;;;;;;;;;5089583;28;20191;-84
2023/01/21 09:32:20;;;;;;;9.20;6.23;;;;;;;;;;5092516;28;20234;-84
2023/01/21 09:34:48;;;;;;;9.03;6.60;;;;;;;;;;5090138;28;20285;-84
2023/01/21 09:37:15;;;;;;;12.47;7.50;;;;;;;;;;5086194;28;20285;-84
2023/01/21 09:39:44;;;;;;;11.77;9.30;;;;;;;;;;5082408;28;20316;-84
2023/01/21 09:42:17;;;;;;;11.57;7.07;;;;;;;;;;5084281;28;20281;-84
2023/01/21 09:44:47;;;;;;;8.77;6.50;;;;;;;;;;5082018;28;20230;-84
2023/01/21 09:47:18;;;;;;;9.93;6.73;;;;;;;;;;5086295;28;20243;-83
2023/01/21 09:49:48;;;;;;;12.23;7.90;;;;;;;;;;5075112;28;20350;-84
2023/01/21 09:52:22;;;;;;;12.97;7.47;;;;;;;;;;5087964;28;20212;-84
2023/01/21 09:54:51;;;;;;;11.17;7.77;;;;;;;;;;5087850;28;20277;-85
2023/01/21 09:57:32;;;;;;;11.47;7.90;;;;;;;;;;5092449;28;20281;-84
2023/01/21 10:00:08;;;;;;;13.13;8.17;;;;;;;;;;5090790;28;20309;-84
2023/01/21 10:02:39;;;;;;;11.80;8.30;;;;;;;;;;5090174;28;20198;-85
2023/01/21 10:05:29;;;;;;;12.17;8.60;;;;;;;;;;5079111;28;20286;-85
2023/01/21 10:07:59;;;;;;;13.63;8.67;;;;;;;;;;5091557;28;20293;-84
2023/01/21 10:10:31;;;;;;;10.90;8.70;;;;;;;;;;5091807;28;22070;-84
2023/01/21 10:13:05;;;;;;;14.33;8.93;;;;;;;;;;5087225;28;20214;-85
2023/01/21 10:15:38;;;;;;;11.90;8.57;;;;;;;;;;5080084;28;20296;-84
2023/01/21 10:18:08;;;;;;;12.40;9.07;;;;;;;;;;5078650;28;20229;-84
2023/01/21 10:20:39;;;;;;;14.30;9.70;;;;;;;;;;5081103;28;20313;-84
2023/01/21 10:23:08;;;;;;;10.20;8.63;;;;;;;;;;5082075;28;20317;-85
2023/01/21 10:25:37;;;;;;;11.97;8.73;;;;;;;;;;5078864;28;20223;-84
2023/01/21 10:28:07;;;;;;;12.67;9.33;;;;;;;;;;5080396;28;20285;-84
2023/01/21 10:30:37;;;;;;;12.27;8.47;;;;;;;;;;5081362;28;20629;-86
2023/01/21 10:33:05;;;;;;;14.37;9.00;;;;;;;;;;5080538;28;20226;-86
2023/01/21 10:35:39;;;;;;;11.93;9.10;;;;;;;;;;5080521;28;20214;-86
2023/01/21 10:38:10;;;;;;;15.40;9.70;;;;;;;;;;5080485;28;20205;-87
2023/01/21 10:40:42;;;;;;;13.73;9.83;;;;;;;;;;5083392;28;20343;-86
2023/01/21 10:43:12;;;;;;;11.63;9.40;;;;;;;;;;5082914;28;20214;-86
2023/01/21 10:45:44;;;;;;;10.80;9.43;;;;;;;;;;5083572;28;20248;-86
2023/01/21 10:48:14;;;;;;;14.50;10.37;;;;;;;;;;5083739;28;20615;-85
2023/01/21 10:50:46;;;;;;;12.53;8.97;;;;;;;;;;5082544;28;20290;-85
2023/01/21 10:53:18;;;;;;;11.20;9.37;;;;;;;;;;5076396;28;20286;-85
2023/01/21 10:56:04;;;;;;;10.17;8.60;;;;;;;;;;5074786;28;20281;-84
2023/01/21 10:58:34;;;;;;;10.47;8.47;;;;;;;;;;5081973;28;20241;-85
2023/01/21 11:01:02;;;;;;;11.57;9.07;;;;;;;;;;5075343;28;20321;-85
2023/01/21 11:03:31;;;;;;;12.03;9.27;;;;;;;;;;5088688;28;20285;-85
2023/01/21 11:06:00;;;;;;;9.97;8.77;;;;;;;;;;5081219;28;20859;-88
2023/01/21 11:08:28;;;;;;;12.77;10.10;;;;;;;;;;5096862;28;20258;-88
2023/01/21 11:10:55;;;;;;;10.90;9.07;;;;;;;;;;5080188;28;20187;-82
2023/01/21 11:13:22;;;;;;;9.60;8.37;;;;;;;;;;5082589;28;20301;-81
2023/01/21 11:15:53;;;;;;;9.87;8.40;;;;;;;;;;5086875;28;20198;-82
2023/01/21 11:18:27;;;;;;;9.37;8.10;;;;;;;;;;5078475;28;20678;-80
2023/01/21 11:20:56;;;;;;;9.70;8.20;;;;;;;;;;5083369;28;20716;-82
2023/01/21 11:23:26;;;;;;;10.50;8.37;;;;;;;;;;5088592;28;20233;-82
2023/01/21 11:26:01;;;;;;;10.30;8.63;;;;;;;;;;5088474;28;20198;-82
2023/01/21 11:28:29;;;;;;;12.30;9.10;;;;;;;;;;5081569;28;20206;-83
2023/01/21 11:31:05;;;;;;;10.30;8.57;;;;;;;;;;5084944;28;20198;-82
2023/01/21 11:33:32;;;;;;;10.80;8.73;;;;;;;;;;5082262;28;20297;-81
2023/01/21 11:36:09;;;;;;;11.70;8.63;;;;;;;;;;5082353;28;20230;-82
2023/01/21 11:38:37;;;;;;;9.67;8.07;;;;;;;;;;5070790;28;20289;-82
2023/01/21 11:41:05;;;;;;;10.10;8.20;;;;;;;;;;5085812;28;20773;-85
2023/01/21 11:43:37;;;;;;;11.03;8.93;;;;;;;;;;5073323;28;20290;-86
2023/01/21 11:46:27;;;;;;;11.37;9.23;;;;;;;;;;5071809;28;20223;-83
2023/01/21 11:48:55;;;;;;;11.03;8.30;;;;;;;;;;5089809;28;20734;-86
2023/01/21 11:51:22;;;;;;;10.03;7.93;;;;;;;;;;5090080;28;20198;-83
2023/01/21 11:53:49;;;;;;;13.60;8.23;;;;;;;;;;5081266;28;20234;-83
2023/01/21 11:56:17;;;;;;;12.03;8.50;;;;;;;;;;5086830;28;20741;-87
2023/01/21 11:58:44;;;;;;;10.53;8.10;;;;;;;;;;5071439;28;20249;-84
2023/01/21 12:01:19;;;;;;;11.40;8.67;;;;;;;;;;5070504;28;20765;-83
2023/01/21 12:03:50;;;;;;;11.13;8.03;;;;;;;;;;5071040;28;20210;-83
2023/01/21 12:06:20;;;;;;;9.30;7.93;;;;;;;;;;5071528;28;20241;-82
2023/01/21 12:08:50;;;;;;;10.43;8.50;;;;;;;;;;5090696;28;20265;-82
2023/01/21 12:11:19;;;;;;;9.30;7.90;;;;;;;;;;5091120;28;20864;-83
2023/01/21 12:13:49;;;;;;;9.37;8.30;;;;;;;;;;5091027;28;20218;-83
2023/01/21 12:16:24;;;;;;;9.73;8.43;;;;;;;;;;5090329;28;20233;-82
2023/01/21 12:19:03;;;;;;;9.03;7.60;;;;;;;;;;5091133;28;20323;-82
2023/01/21 12:21:36;;;;;;;8.83;7.23;;;;;;;;;;5090458;28;20316;-84
2023/01/21 12:24:09;;;;;;;9.83;7.73;;;;;;;;;;5090837;28;20294;-81
2023/01/21 12:26:40;;;;;;;11.30;8.90;;;;;;;;;;5090655;28;20275;-82
2023/01/21 12:29:22;;;;;;;11.37;8.83;;;;;;;;;;5092068;28;20247;-83
2023/01/21 12:31:51;;;;;;;10.43;8.77;;;;;;;;;;5090632;28;20804;-82
2023/01/21 12:34:25;;;;;;;10.00;8.43;;;;;;;;;;5089762;28;20203;-82
2023/01/21 12:36:54;;;;;;;10.73;8.37;;;;;;;;;;5094105;28;20230;-82
2023/01/21 12:39:24;;;;;;;11.00;9.13;;;;;;;;;;5077382;28;20238;-82
2023/01/21 12:41:56;;;;;;;10.70;7.67;;;;;;;;;;5079834;28;20314;-82
2023/01/21 12:44:26;;;;;;;9.40;7.53;;;;;;;;;;5081995;28;20233;-82
2023/01/21 12:46:55;;;;;;;9.40;7.87;;;;;;;;;;5093470;28;20229;-82
2023/01/21 12:49:26;;;;;;;9.13;7.70;;;;;;;;;;5093590;28;20206;-82
2023/01/21 12:51:56;;;;;;;9.57;7.70;;;;;;;;;;5077639;28;20195;-83
2023/01/21 12:54:25;;;;;;;13.43;8.20;;;;;;;;;;5085076;28;20242;-82
2023/01/21 12:56:56;;;;;;;10.70;8.53;;;;;;;;;;5080691;28;20211;-81
2023/01/21 12:59:25;;;;;;;11.33;8.57;;;;;;;;;;5083380;28;20283;-83
2023/01/21 13:01:55;;;;;;;11.87;8.67;;;;;;;;;;5085697;28;20245;-81
2023/01/21 13:04:38;;;;;;;11.60;9.43;;;;;;;;;;5086222;28;20223;-83
2023/01/21 13:07:07;;;;;;;12.87;10.03;;;;;;;;;;5078585;28;20206;-83
2023/01/21 13:09:38;;;;;;;11.07;9.10;;;;;;;;;;5082110;28;20262;-82
2023/01/21 13:12:09;;;;;;;13.30;9.13;;;;;;;;;;5078355;28;20718;-82
2023/01/21 13:14:38;;;;;;;10.17;8.27;;;;;;;;;;5072363;28;20223;-83
2023/01/21 13:17:08;;;;;;;10.27;8.37;;;;;;;;;;5073242;28;20282;-83
2023/01/21 13:19:36;;;;;;;11.70;8.57;;;;;;;;;;5073523;28;20265;-82
2023/01/21 13:22:05;;;;;;;9.80;8.17;;;;;;;;;;5072982;28;20314;-82
2023/01/21 13:24:34;;;;;;;11.60;8.87;;;;;;;;;;5073208;28;20249;-83
2023/01/21 13:27:06;;;;;;;11.07;8.47;;;;;;;;;;5073029;28;20241;-82
2023/01/21 13:29:38;;;;;;;10.27;8.33;;;;;;;;;;5075261;28;20191;-82
2023/01/21 13:32:21;;;;;;;11.03;8.60;;;;;;;;;;5093215;28;20269;-82
2023/01/21 13:34:53;;;;;;;12.53;9.10;;;;;;;;;;5092817;28;20226;-82
2023/01/21 13:37:24;;;;;;;10.83;7.93;;;;;;;;;;5092854;28;20229;-82
2023/01/21 13:39:55;;;;;;;10.57;8.00;;;;;;;;;;5093078;28;20250;-82
2023/01/21 13:42:28;;;;;;;12.03;8.60;;;;;;;;;;5093190;28;20249;-83
2023/01/21 13:45:13;;;;;;;10.00;8.07;;;;;;;;;;5092777;28;20280;-83
2023/01/21 13:47:59;;;;;;;11.83;8.33;;;;;;;;;;5092600;28;20293;-82
2023/01/21 13:50:34;;;;;;;10.93;7.33;;;;;;;;;;5092876;28;20195;-82
2023/01/21 13:53:09;;;;;;;12.30;8.10;;;;;;;;;;5092565;28;20261;-82
2023/01/21 13:55:39;;;;;;;9.50;7.40;;;;;;;;;;5092977;28;20271;-83
2023/01/21 13:58:09;;;;;;;9.57;7.13;;;;;;;;;;5092398;28;20214;-83
2023/01/21 14:00:39;;;;;;;10.07;7.33;;;;;;;;;;5092417;28;20280;-83
2023/01/21 14:03:10;;;;;;;9.53;7.17;;;;;;;;;;5092403;28;20614;-83
2023/01/21 14:05:41;;;;;;;10.07;7.50;;;;;;;;;;5092527;28;20277;-83
2023/01/21 14:08:10;;;;;;;10.70;7.00;;;;;;;;;;5092557;28;20224;-83
2023/01/21 14:10:41;;;;;;;8.67;7.03;;;;;;;;;;5092559;28;20272;-83
2023/01/21 14:13:23;;;;;;;10.07;6.90;;;;;;;;;;5090534;28;20226;-80
2023/01/21 14:15:59;;;;;;;10.83;7.13;;;;;;;;;;5067921;28;20293;-82
2023/01/21 14:18:36;;;;;;;9.18;7.50;;;;;;;;;;5073881;28;20518;-79
2023/01/21 14:21:19;;;;;;;9.13;6.80;;;;;;;;;;5092705;28;20313;-80
2023/01/21 14:23:56;;;;;;;8.93;6.70;;;;;;;;;;5082240;28;20706;-80
2023/01/21 14:26:34;;;;;;;8.80;6.37;;;;;;;;;;5073929;28;20220;-79
2023/01/21 14:29:08;;;;;;;9.30;6.50;;;;;;;;;;5082619;28;20280;-78
2023/01/21 14:31:38;;;;;;;9.70;7.10;;;;;;;;;;5075028;28;20983;-79
2023/01/21 14:34:12;;;;;;;9.40;6.97;;;;;;;;;;5076733;28;20190;-78
2023/01/21 14:36:41;;;;;;;10.20;7.20;;;;;;;;;;5078956;28;20265;-78
2023/01/21 14:39:14;;;;;;;9.70;6.40;;;;;;;;;;5074370;28;20287;-78
2023/01/21 14:41:54;;;;;;;10.07;7.00;;;;;;;;;;5073675;28;20334;-77
2023/01/21 14:44:44;;;;;;;10.03;6.87;;;;;;;;;;5074518;28;20274;-76
2023/01/21 14:47:15;;;;;;;9.00;6.47;;;;;;;;;;5081173;28;20206;-81
2023/01/21 14:49:43;;;;;;;9.53;6.47;;;;;;;;;;5082568;28;20279;-80